sensor_id;sensor_type;location;lat;lon;timestamp;temperature;humidity
56046;DHT22;41913;51.030;3.706;2023-08-30T00:00:48;23.10;82.40
56046;DHT22;41913;51.030;3.706;2023-08-30T00:03:13;23.10;82.40
56046;DHT22;41913;51.030;3.706;2023-08-30T00:05:40;23.10;82.50
56046;DHT22;41913;51.030;3.706;2023-08-30T00:08:06;23.10;82.50
56046;DHT22;41913;51.030;3.706;2023-08-30T00:10:32;23.10;82.50
56046;DHT22;41913;51.030;3.706;2023-08-30T00:12:58;23.10;82.40
56046;DHT22;41913;51.030;3.706;2023-08-30T00:15:25;23.10;82.50
56046;DHT22;41913;51.030;3.706;2023-08-30T00:17:51;23.10;82.50
56046;DHT22;41913;51.030;3.706;2023-08-30T00:20:21;23.10;82.50
56046;DHT22;41913;51.030;3.706;2023-08-30T00:22:48;23.10;82.50
56046;DHT22;41913;51.030;3.706;2023-08-30T00:25:16;23.10;82.50
56046;DHT22;41913;51.030;3.706;2023-08-30T00:27:42;23.10;82.50
56046;DHT22;41913;51.030;3.706;2023-08-30T00:30:09;23.10;82.50
56046;DHT22;41913;51.030;3.706;2023-08-30T00:32:36;23.10;82.50
56046;DHT22;41913;51.030;3.706;2023-08-30T00:35:02;23.10;82.50
56046;DHT22;41913;51.030;3.706;2023-08-30T00:37:27;23.10;82.50
56046;DHT22;41913;51.030;3.706;2023-08-30T00:39:53;23.10;82.50
56046;DHT22;41913;51.030;3.706;2023-08-30T00:42:19;23.10;82.50
56046;DHT22;41913;51.030;3.706;2023-08-30T00:44:45;23.10;82.50
56046;DHT22;41913;51.030;3.706;2023-08-30T00:47:10;23.00;82.50
56046;DHT22;41913;51.030;3.706;2023-08-30T00:49:36;23.00;82.50
56046;DHT22;41913;51.030;3.706;2023-08-30T00:52:05;23.10;82.50
56046;DHT22;41913;51.030;3.706;2023-08-30T00:54:32;23.10;82.50
56046;DHT22;41913;51.030;3.706;2023-08-30T00:56:58;23.10;82.50
56046;DHT22;41913;51.030;3.706;2023-08-30T00:59:26;23.00;82.50
56046;DHT22;41913;51.030;3.706;2023-08-30T01:01:52;23.00;82.50
56046;DHT22;41913;51.030;3.706;2023-08-30T01:04:19;23.10;82.50
56046;DHT22;41913;51.030;3.706;2023-08-30T01:06:45;23.00;82.50
56046;DHT22;41913;51.030;3.706;2023-08-30T01:09:11;23.00;82.50
56046;DHT22;41913;51.030;3.706;2023-08-30T01:11:50;23.00;82.50
56046;DHT22;41913;51.030;3.706;2023-08-30T01:14:22;23.10;82.60
56046;DHT22;41913;51.030;3.706;2023-08-30T01:16:50;23.00;82.50
56046;DHT22;41913;51.030;3.706;2023-08-30T01:25:09;23.00;82.60
56046;DHT22;41913;51.030;3.706;2023-08-30T01:27:38;23.10;82.70
56046;DHT22;41913;51.030;3.706;2023-08-30T01:30:06;23.00;82.60
56046;DHT22;41913;51.030;3.706;2023-08-30T01:32:34;23.00;82.60
56046;DHT22;41913;51.030;3.706;2023-08-30T01:35:01;23.00;82.60
56046;DHT22;41913;51.030;3.706;2023-08-30T01:37:28;23.00;82.60
56046;DHT22;41913;51.030;3.706;2023-08-30T01:39:55;23.00;82.60
56046;DHT22;41913;51.030;3.706;2023-08-30T01:42:27;23.00;82.60
56046;DHT22;41913;51.030;3.706;2023-08-30T01:44:54;23.00;82.60
56046;DHT22;41913;51.030;3.706;2023-08-30T01:47:25;23.10;82.70
56046;DHT22;41913;51.030;3.706;2023-08-30T01:49:53;23.00;82.60
56046;DHT22;41913;51.030;3.706;2023-08-30T01:52:20;23.00;82.60
56046;DHT22;41913;51.030;3.706;2023-08-30T01:54:48;23.00;82.70
56046;DHT22;41913;51.030;3.706;2023-08-30T01:57:16;23.00;82.60
56046;DHT22;41913;51.030;3.706;2023-08-30T01:59:42;23.00;82.60
56046;DHT22;41913;51.030;3.706;2023-08-30T02:02:07;23.00;82.60
56046;DHT22;41913;51.030;3.706;2023-08-30T02:04:33;23.00;82.60
56046;DHT22;41913;51.030;3.706;2023-08-30T02:07:04;23.00;82.60
56046;DHT22;41913;51.030;3.706;2023-08-30T02:12:08;23.00;82.60
56046;DHT22;41913;51.030;3.706;2023-08-30T02:14:37;23.10;82.70
56046;DHT22;41913;51.030;3.706;2023-08-30T02:17:05;23.00;82.70
56046;DHT22;41913;51.030;3.706;2023-08-30T02:19:32;23.00;83.30
56046;DHT22;41913;51.030;3.706;2023-08-30T02:21:58;23.00;82.70
56046;DHT22;41913;51.030;3.706;2023-08-30T02:24:24;23.10;82.70
56046;DHT22;41913;51.030;3.706;2023-08-30T02:26:50;23.00;82.70
56046;DHT22;41913;51.030;3.706;2023-08-30T02:29:15;23.00;82.70
56046;DHT22;41913;51.030;3.706;2023-08-30T02:31:41;23.00;82.60
56046;DHT22;41913;51.030;3.706;2023-08-30T02:34:07;23.10;82.60
56046;DHT22;41913;51.030;3.706;2023-08-30T02:36:32;23.00;82.50
56046;DHT22;41913;51.030;3.706;2023-08-30T02:38:58;23.00;82.40
56046;DHT22;41913;51.030;3.706;2023-08-30T02:41:24;23.00;82.30
56046;DHT22;41913;51.030;3.706;2023-08-30T02:43:50;23.00;81.80
56046;DHT22;41913;51.030;3.706;2023-08-30T02:46:15;23.00;81.60
56046;DHT22;41913;51.030;3.706;2023-08-30T02:48:41;22.90;81.50
56046;DHT22;41913;51.030;3.706;2023-08-30T02:51:07;22.90;81.60
56046;DHT22;41913;51.030;3.706;2023-08-30T02:53:33;22.90;81.80
56046;DHT22;41913;51.030;3.706;2023-08-30T02:55:58;22.80;81.90
56046;DHT22;41913;51.030;3.706;2023-08-30T02:58:24;22.80;82.10
56046;DHT22;41913;51.030;3.706;2023-08-30T03:00:51;22.80;82.20
56046;DHT22;41913;51.030;3.706;2023-08-30T03:03:16;22.80;82.30
56046;DHT22;41913;51.030;3.706;2023-08-30T03:05:42;22.80;82.30
56046;DHT22;41913;51.030;3.706;2023-08-30T03:08:08;22.80;82.50
56046;DHT22;41913;51.030;3.706;2023-08-30T03:10:34;22.80;82.60
56046;DHT22;41913;51.030;3.706;2023-08-30T03:12:59;22.80;82.60
56046;DHT22;41913;51.030;3.706;2023-08-30T03:15:26;22.80;82.70
56046;DHT22;41913;51.030;3.706;2023-08-30T03:17:52;22.80;82.80
56046;DHT22;41913;51.030;3.706;2023-08-30T03:20:17;22.80;82.70
56046;DHT22;41913;51.030;3.706;2023-08-30T03:22:43;22.80;82.70
56046;DHT22;41913;51.030;3.706;2023-08-30T03:25:09;22.80;82.80
56046;DHT22;41913;51.030;3.706;2023-08-30T03:27:35;22.80;82.80
56046;DHT22;41913;51.030;3.706;2023-08-30T03:30:04;22.70;82.80
56046;DHT22;41913;51.030;3.706;2023-08-30T03:32:32;22.70;82.90
56046;DHT22;41913;51.030;3.706;2023-08-30T03:34:58;22.70;82.90
56046;DHT22;41913;51.030;3.706;2023-08-30T03:37:23;22.70;83.00
56046;DHT22;41913;51.030;3.706;2023-08-30T03:39:49;22.70;83.00
56046;DHT22;41913;51.030;3.706;2023-08-30T03:42:15;22.70;83.00
56046;DHT22;41913;51.030;3.706;2023-08-30T03:44:40;22.70;83.10
56046;DHT22;41913;51.030;3.706;2023-08-30T03:47:07;22.70;83.00
56046;DHT22;41913;51.030;3.706;2023-08-30T03:49:34;22.70;83.10
56046;DHT22;41913;51.030;3.706;2023-08-30T03:52:00;22.70;83.10
56046;DHT22;41913;51.030;3.706;2023-08-30T03:54:26;22.70;83.10
56046;DHT22;41913;51.030;3.706;2023-08-30T03:56:52;22.70;83.10
56046;DHT22;41913;51.030;3.706;2023-08-30T03:59:17;22.70;83.10
56046;DHT22;41913;51.030;3.706;2023-08-30T04:01:44;22.70;83.20
56046;DHT22;41913;51.030;3.706;2023-08-30T04:04:10;22.70;83.20
56046;DHT22;41913;51.030;3.706;2023-08-30T04:06:36;22.70;83.20
56046;DHT22;41913;51.030;3.706;2023-08-30T04:09:01;22.70;83.30
56046;DHT22;41913;51.030;3.706;2023-08-30T04:11:27;22.70;83.30
56046;DHT22;41913;51.030;3.706;2023-08-30T04:13:53;22.70;83.30
56046;DHT22;41913;51.030;3.706;2023-08-30T04:16:19;22.70;83.30
56046;DHT22;41913;51.030;3.706;2023-08-30T04:18:44;22.70;83.40
56046;DHT22;41913;51.030;3.706;2023-08-30T04:21:10;22.70;83.40
56046;DHT22;41913;51.030;3.706;2023-08-30T04:23:35;22.70;83.40
56046;DHT22;41913;51.030;3.706;2023-08-30T04:26:01;22.70;83.40
56046;DHT22;41913;51.030;3.706;2023-08-30T04:28:27;22.70;83.40
56046;DHT22;41913;51.030;3.706;2023-08-30T04:30:56;22.70;83.40
56046;DHT22;41913;51.030;3.706;2023-08-30T04:33:23;22.70;83.50
56046;DHT22;41913;51.030;3.706;2023-08-30T04:35:53;22.70;83.50
56046;DHT22;41913;51.030;3.706;2023-08-30T04:38:20;22.70;83.50
56046;DHT22;41913;51.030;3.706;2023-08-30T04:40:47;22.70;83.50
56046;DHT22;41913;51.030;3.706;2023-08-30T04:43:12;22.70;83.50
56046;DHT22;41913;51.030;3.706;2023-08-30T04:45:38;22.70;83.60
56046;DHT22;41913;51.030;3.706;2023-08-30T04:48:04;22.60;83.50
56046;DHT22;41913;51.030;3.706;2023-08-30T04:50:31;22.70;83.60
56046;DHT22;41913;51.030;3.706;2023-08-30T04:52:57;22.60;83.60
56046;DHT22;41913;51.030;3.706;2023-08-30T04:55:28;22.70;84.20
56046;DHT22;41913;51.030;3.706;2023-08-30T04:57:53;22.60;83.60
56046;DHT22;41913;51.030;3.706;2023-08-30T05:00:19;22.60;83.70
56046;DHT22;41913;51.030;3.706;2023-08-30T05:02:45;22.60;83.70
56046;DHT22;41913;51.030;3.706;2023-08-30T05:05:13;22.60;83.70
56046;DHT22;41913;51.030;3.706;2023-08-30T05:07:39;22.60;83.70
56046;DHT22;41913;51.030;3.706;2023-08-30T05:10:05;22.60;83.70
56046;DHT22;41913;51.030;3.706;2023-08-30T05:12:33;22.60;83.80
56046;DHT22;41913;51.030;3.706;2023-08-30T05:14:59;22.60;83.80
56046;DHT22;41913;51.030;3.706;2023-08-30T05:17:26;22.60;83.80
56046;DHT22;41913;51.030;3.706;2023-08-30T05:19:53;22.60;83.90
56046;DHT22;41913;51.030;3.706;2023-08-30T05:22:19;22.60;83.90
56046;DHT22;41913;51.030;3.706;2023-08-30T05:24:45;22.60;84.00
56046;DHT22;41913;51.030;3.706;2023-08-30T05:27:10;22.60;84.00
56046;DHT22;41913;51.030;3.706;2023-08-30T05:29:38;22.60;84.00
56046;DHT22;41913;51.030;3.706;2023-08-30T05:32:04;22.60;84.10
56046;DHT22;41913;51.030;3.706;2023-08-30T05:34:29;22.60;84.10
56046;DHT22;41913;51.030;3.706;2023-08-30T05:36:55;22.60;84.20
56046;DHT22;41913;51.030;3.706;2023-08-30T05:39:21;22.50;84.20
56046;DHT22;41913;51.030;3.706;2023-08-30T05:41:47;22.50;84.30
56046;DHT22;41913;51.030;3.706;2023-08-30T05:44:12;22.50;84.30
56046;DHT22;41913;51.030;3.706;2023-08-30T05:46:38;22.50;84.30
56046;DHT22;41913;51.030;3.706;2023-08-30T05:49:04;22.50;84.40
56046;DHT22;41913;51.030;3.706;2023-08-30T05:51:29;22.50;84.50
56046;DHT22;41913;51.030;3.706;2023-08-30T05:53:55;22.50;84.60
56046;DHT22;41913;51.030;3.706;2023-08-30T05:56:21;22.50;84.60
56046;DHT22;41913;51.030;3.706;2023-08-30T05:58:46;22.50;85.20
56046;DHT22;41913;51.030;3.706;2023-08-30T06:01:13;22.50;84.70
56046;DHT22;41913;51.030;3.706;2023-08-30T06:03:39;22.40;84.70
56046;DHT22;41913;51.030;3.706;2023-08-30T06:06:05;22.40;84.80
56046;DHT22;41913;51.030;3.706;2023-08-30T06:08:31;22.50;84.90
56046;DHT22;41913;51.030;3.706;2023-08-30T06:10:57;22.50;85.00
56046;DHT22;41913;51.030;3.706;2023-08-30T06:13:23;22.50;85.00
56046;DHT22;41913;51.030;3.706;2023-08-30T06:15:52;22.50;85.10
56046;DHT22;41913;51.030;3.706;2023-08-30T06:18:18;22.50;85.30
56046;DHT22;41913;51.030;3.706;2023-08-30T06:20:44;22.50;85.60
56046;DHT22;41913;51.030;3.706;2023-08-30T06:23:09;22.50;85.90
56046;DHT22;41913;51.030;3.706;2023-08-30T06:25:35;22.50;86.10
56046;DHT22;41913;51.030;3.706;2023-08-30T06:28:01;22.50;86.30
56046;DHT22;41913;51.030;3.706;2023-08-30T06:30:31;22.50;86.30
56046;DHT22;41913;51.030;3.706;2023-08-30T06:32:57;22.50;86.40
56046;DHT22;41913;51.030;3.706;2023-08-30T06:35:23;22.50;86.50
56046;DHT22;41913;51.030;3.706;2023-08-30T06:37:49;22.50;86.50
56046;DHT22;41913;51.030;3.706;2023-08-30T06:40:15;22.50;86.50
56046;DHT22;41913;51.030;3.706;2023-08-30T06:42:41;22.50;86.50
56046;DHT22;41913;51.030;3.706;2023-08-30T06:45:07;22.50;86.50
56046;DHT22;41913;51.030;3.706;2023-08-30T06:47:33;22.50;86.50
56046;DHT22;41913;51.030;3.706;2023-08-30T06:50:00;22.40;86.50
56046;DHT22;41913;51.030;3.706;2023-08-30T06:52:26;22.40;86.50
56046;DHT22;41913;51.030;3.706;2023-08-30T06:54:52;22.40;86.50
56046;DHT22;41913;51.030;3.706;2023-08-30T06:57:17;22.40;86.60
56046;DHT22;41913;51.030;3.706;2023-08-30T06:59:43;22.40;86.60
56046;DHT22;41913;51.030;3.706;2023-08-30T07:02:09;22.40;86.70
56046;DHT22;41913;51.030;3.706;2023-08-30T07:04:35;22.40;86.70
56046;DHT22;41913;51.030;3.706;2023-08-30T07:07:00;22.40;86.80
56046;DHT22;41913;51.030;3.706;2023-08-30T07:09:26;22.40;86.80
56046;DHT22;41913;51.030;3.706;2023-08-30T07:11:55;22.40;86.80
56046;DHT22;41913;51.030;3.706;2023-08-30T07:14:21;22.40;86.80
56046;DHT22;41913;51.030;3.706;2023-08-30T07:16:47;22.40;86.90
56046;DHT22;41913;51.030;3.706;2023-08-30T07:19:16;22.40;86.90
56046;DHT22;41913;51.030;3.706;2023-08-30T07:21:42;22.50;87.00
56046;DHT22;41913;51.030;3.706;2023-08-30T07:24:08;22.50;87.00
56046;DHT22;41913;51.030;3.706;2023-08-30T07:26:35;22.50;87.00
56046;DHT22;41913;51.030;3.706;2023-08-30T07:29:00;22.50;87.00
56046;DHT22;41913;51.030;3.706;2023-08-30T07:31:26;22.50;87.10
56046;DHT22;41913;51.030;3.706;2023-08-30T07:33:52;22.50;87.10
56046;DHT22;41913;51.030;3.706;2023-08-30T07:36:17;22.50;87.10
56046;DHT22;41913;51.030;3.706;2023-08-30T07:38:43;22.50;87.10
56046;DHT22;41913;51.030;3.706;2023-08-30T07:41:09;22.60;87.20
56046;DHT22;41913;51.030;3.706;2023-08-30T07:43:35;22.50;87.40
56046;DHT22;41913;51.030;3.706;2023-08-30T07:46:01;22.50;87.70
56046;DHT22;41913;51.030;3.706;2023-08-30T07:48:28;22.50;88.00
56046;DHT22;41913;51.030;3.706;2023-08-30T07:50:54;22.60;88.20
56046;DHT22;41913;51.030;3.706;2023-08-30T07:53:19;22.60;88.30
56046;DHT22;41913;51.030;3.706;2023-08-30T07:55:51;22.60;88.30
56046;DHT22;41913;51.030;3.706;2023-08-30T07:58:17;22.60;88.40
56046;DHT22;41913;51.030;3.706;2023-08-30T08:00:43;22.60;88.50
56046;DHT22;41913;51.030;3.706;2023-08-30T08:03:08;22.60;88.60
56046;DHT22;41913;51.030;3.706;2023-08-30T08:05:36;22.60;88.70
56046;DHT22;41913;51.030;3.706;2023-08-30T08:08:02;22.60;88.70
56046;DHT22;41913;51.030;3.706;2023-08-30T08:10:34;22.60;88.80
56046;DHT22;41913;51.030;3.706;2023-08-30T08:13:00;22.60;88.90
56046;DHT22;41913;51.030;3.706;2023-08-30T08:15:28;22.60;89.00
56046;DHT22;41913;51.030;3.706;2023-08-30T08:17:56;22.60;89.20
56046;DHT22;41913;51.030;3.706;2023-08-30T08:20:22;22.60;89.30
56046;DHT22;41913;51.030;3.706;2023-08-30T08:22:48;22.60;89.40
56046;DHT22;41913;51.030;3.706;2023-08-30T08:25:13;22.60;89.40
56046;DHT22;41913;51.030;3.706;2023-08-30T08:27:39;22.60;89.50
56046;DHT22;41913;51.030;3.706;2023-08-30T08:30:06;22.60;89.60
56046;DHT22;41913;51.030;3.706;2023-08-30T08:32:32;22.60;89.60
56046;DHT22;41913;51.030;3.706;2023-08-30T08:34:58;22.60;89.70
56046;DHT22;41913;51.030;3.706;2023-08-30T08:37:24;22.60;89.70
56046;DHT22;41913;51.030;3.706;2023-08-30T08:39:50;22.60;89.80
56046;DHT22;41913;51.030;3.706;2023-08-30T08:42:18;22.60;89.80
56046;DHT22;41913;51.030;3.706;2023-08-30T08:44:47;22.50;89.80
56046;DHT22;41913;51.030;3.706;2023-08-30T08:47:16;22.50;89.70
56046;DHT22;41913;51.030;3.706;2023-08-30T08:49:43;22.50;89.60
56046;DHT22;41913;51.030;3.706;2023-08-30T08:52:09;22.50;89.50
56046;DHT22;41913;51.030;3.706;2023-08-30T08:54:39;22.60;89.40
56046;DHT22;41913;51.030;3.706;2023-08-30T08:57:07;22.60;89.30
56046;DHT22;41913;51.030;3.706;2023-08-30T08:59:33;22.50;89.10
56046;DHT22;41913;51.030;3.706;2023-08-30T09:02:02;22.50;89.00
56046;DHT22;41913;51.030;3.706;2023-08-30T09:04:31;22.60;89.10
56046;DHT22;41913;51.030;3.706;2023-08-30T09:06:58;22.60;89.00
56046;DHT22;41913;51.030;3.706;2023-08-30T09:09:25;22.60;88.60
56046;DHT22;41913;51.030;3.706;2023-08-30T09:11:51;22.60;88.30
56046;DHT22;41913;51.030;3.706;2023-08-30T09:14:19;22.50;87.90
56046;DHT22;41913;51.030;3.706;2023-08-30T09:19:20;22.50;87.00
56046;DHT22;41913;51.030;3.706;2023-08-30T09:21:53;22.50;86.60
56046;DHT22;41913;51.030;3.706;2023-08-30T09:24:19;22.50;86.30
56046;DHT22;41913;51.030;3.706;2023-08-30T09:26:55;22.50;86.10
56046;DHT22;41913;51.030;3.706;2023-08-30T09:29:21;22.50;85.90
56046;DHT22;41913;51.030;3.706;2023-08-30T09:31:52;22.40;85.40
56046;DHT22;41913;51.030;3.706;2023-08-30T09:34:25;22.50;85.10
56046;DHT22;41913;51.030;3.706;2023-08-30T09:36:51;22.40;84.90
56046;DHT22;41913;51.030;3.706;2023-08-30T09:39:17;22.40;84.80
56046;DHT22;41913;51.030;3.706;2023-08-30T09:41:48;22.40;84.60
56046;DHT22;41913;51.030;3.706;2023-08-30T09:44:16;22.40;84.30
56046;DHT22;41913;51.030;3.706;2023-08-30T09:46:46;22.40;84.30
56046;DHT22;41913;51.030;3.706;2023-08-30T09:49:14;22.40;83.90
56046;DHT22;41913;51.030;3.706;2023-08-30T09:51:41;22.40;83.50
56046;DHT22;41913;51.030;3.706;2023-08-30T09:54:22;22.40;83.10
56046;DHT22;41913;51.030;3.706;2023-08-30T09:56:48;22.40;82.90
56046;DHT22;41913;51.030;3.706;2023-08-30T09:59:19;22.40;82.60
56046;DHT22;41913;51.030;3.706;2023-08-30T10:01:47;22.40;82.70
56046;DHT22;41913;51.030;3.706;2023-08-30T10:04:14;22.30;82.70
56046;DHT22;41913;51.030;3.706;2023-08-30T10:06:40;22.30;82.70
56046;DHT22;41913;51.030;3.706;2023-08-30T10:09:08;22.30;82.60
56046;DHT22;41913;51.030;3.706;2023-08-30T10:11:35;22.30;82.60
56046;DHT22;41913;51.030;3.706;2023-08-30T10:14:06;22.40;82.30
56046;DHT22;41913;51.030;3.706;2023-08-30T10:16:40;22.40;81.40
56046;DHT22;41913;51.030;3.706;2023-08-30T10:19:30;22.30;80.60
56046;DHT22;41913;51.030;3.706;2023-08-30T10:22:03;22.30;80.90
56046;DHT22;41913;51.030;3.706;2023-08-30T10:24:35;22.40;81.00
56046;DHT22;41913;51.030;3.706;2023-08-30T10:27:04;22.40;80.60
56046;DHT22;41913;51.030;3.706;2023-08-30T10:29:33;22.40;80.40
56046;DHT22;41913;51.030;3.706;2023-08-30T10:32:04;22.30;80.30
56046;DHT22;41913;51.030;3.706;2023-08-30T10:34:36;22.30;80.40
56046;DHT22;41913;51.030;3.706;2023-08-30T10:37:06;22.40;80.40
56046;DHT22;41913;51.030;3.706;2023-08-30T10:39:37;22.50;80.10
56046;DHT22;41913;51.030;3.706;2023-08-30T10:42:13;22.50;79.80
56046;DHT22;41913;51.030;3.706;2023-08-30T10:45:10;22.50;79.20
56046;DHT22;41913;51.030;3.706;2023-08-30T10:47:37;22.50;78.30
56046;DHT22;41913;51.030;3.706;2023-08-30T10:50:10;22.50;78.00
56046;DHT22;41913;51.030;3.706;2023-08-30T10:52:36;22.40;77.80
56046;DHT22;41913;51.030;3.706;2023-08-30T10:55:10;22.30;77.50
56046;DHT22;41913;51.030;3.706;2023-08-30T10:57:37;22.20;77.80
56046;DHT22;41913;51.030;3.706;2023-08-30T11:00:19;22.40;78.60
56046;DHT22;41913;51.030;3.706;2023-08-30T11:02:48;22.40;78.10
56046;DHT22;41913;51.030;3.706;2023-08-30T11:05:16;22.40;78.20
56046;DHT22;41913;51.030;3.706;2023-08-30T11:07:46;22.40;78.00
56046;DHT22;41913;51.030;3.706;2023-08-30T11:10:13;22.40;78.00
56046;DHT22;41913;51.030;3.706;2023-08-30T11:12:43;22.40;78.20
56046;DHT22;41913;51.030;3.706;2023-08-30T11:15:11;22.30;78.10
56046;DHT22;41913;51.030;3.706;2023-08-30T11:17:38;22.30;78.10
56046;DHT22;41913;51.030;3.706;2023-08-30T11:20:09;22.30;78.20
56046;DHT22;41913;51.030;3.706;2023-08-30T11:22:37;22.40;78.60
56046;DHT22;41913;51.030;3.706;2023-08-30T11:25:03;22.50;78.10
56046;DHT22;41913;51.030;3.706;2023-08-30T11:27:29;22.50;77.80
56046;DHT22;41913;51.030;3.706;2023-08-30T11:29:59;22.40;77.60
56046;DHT22;41913;51.030;3.706;2023-08-30T11:32:26;22.30;77.60
56046;DHT22;41913;51.030;3.706;2023-08-30T11:34:58;22.40;78.10
56046;DHT22;41913;51.030;3.706;2023-08-30T11:37:25;22.40;78.40
56046;DHT22;41913;51.030;3.706;2023-08-30T11:39:52;22.50;78.40
56046;DHT22;41913;51.030;3.706;2023-08-30T11:42:18;22.50;78.60
56046;DHT22;41913;51.030;3.706;2023-08-30T11:44:45;22.50;78.10
56046;DHT22;41913;51.030;3.706;2023-08-30T11:47:11;22.40;78.00
56046;DHT22;41913;51.030;3.706;2023-08-30T11:49:37;22.30;78.60
56046;DHT22;41913;51.030;3.706;2023-08-30T11:52:06;22.30;78.40
56046;DHT22;41913;51.030;3.706;2023-08-30T11:54:32;22.20;78.30
56046;DHT22;41913;51.030;3.706;2023-08-30T11:56:58;22.20;78.60
56046;DHT22;41913;51.030;3.706;2023-08-30T11:59:24;22.20;78.80
56046;DHT22;41913;51.030;3.706;2023-08-30T12:01:53;22.20;78.90
56046;DHT22;41913;51.030;3.706;2023-08-30T12:04:20;22.20;79.20
56046;DHT22;41913;51.030;3.706;2023-08-30T12:06:52;22.20;79.50
56046;DHT22;41913;51.030;3.706;2023-08-30T12:09:21;22.20;79.70
56046;DHT22;41913;51.030;3.706;2023-08-30T12:11:48;22.20;79.50
56046;DHT22;41913;51.030;3.706;2023-08-30T12:14:14;22.20;79.30
56046;DHT22;41913;51.030;3.706;2023-08-30T12:16:40;22.20;79.50
56046;DHT22;41913;51.030;3.706;2023-08-30T12:19:12;22.20;79.40
56046;DHT22;41913;51.030;3.706;2023-08-30T12:21:41;22.20;79.20
56046;DHT22;41913;51.030;3.706;2023-08-30T12:24:07;22.20;79.00
56046;DHT22;41913;51.030;3.706;2023-08-30T12:26:33;22.20;78.90
56046;DHT22;41913;51.030;3.706;2023-08-30T12:28:58;22.20;79.10
56046;DHT22;41913;51.030;3.706;2023-08-30T12:31:24;22.20;79.00
56046;DHT22;41913;51.030;3.706;2023-08-30T12:33:50;22.20;79.00
56046;DHT22;41913;51.030;3.706;2023-08-30T12:36:16;22.20;78.90
56046;DHT22;41913;51.030;3.706;2023-08-30T12:38:41;22.20;78.90
56046;DHT22;41913;51.030;3.706;2023-08-30T12:41:07;22.20;79.20
56046;DHT22;41913;51.030;3.706;2023-08-30T12:43:33;22.20;79.60
56046;DHT22;41913;51.030;3.706;2023-08-30T12:45:58;22.20;80.20
56046;DHT22;41913;51.030;3.706;2023-08-30T12:48:24;22.30;80.10
56046;DHT22;41913;51.030;3.706;2023-08-30T12:50:50;22.20;79.90
56046;DHT22;41913;51.030;3.706;2023-08-30T12:53:15;22.30;79.80
56046;DHT22;41913;51.030;3.706;2023-08-30T12:55:44;22.30;79.60
56046;DHT22;41913;51.030;3.706;2023-08-30T12:58:10;22.30;79.70
56046;DHT22;41913;51.030;3.706;2023-08-30T13:00:37;22.30;79.80
56046;DHT22;41913;51.030;3.706;2023-08-30T13:03:03;22.30;79.80
56046;DHT22;41913;51.030;3.706;2023-08-30T13:05:29;22.30;79.80
56046;DHT22;41913;51.030;3.706;2023-08-30T13:07:58;22.30;79.50
56046;DHT22;41913;51.030;3.706;2023-08-30T13:10:24;22.20;79.20
56046;DHT22;41913;51.030;3.706;2023-08-30T13:12:49;22.30;79.40
56046;DHT22;41913;51.030;3.706;2023-08-30T13:15:15;22.30;79.10
56046;DHT22;41913;51.030;3.706;2023-08-30T13:17:41;22.30;78.70
56046;DHT22;41913;51.030;3.706;2023-08-30T13:20:07;22.20;78.70
56046;DHT22;41913;51.030;3.706;2023-08-30T13:22:32;22.30;78.70
56046;DHT22;41913;51.030;3.706;2023-08-30T13:24:58;22.30;79.00
56046;DHT22;41913;51.030;3.706;2023-08-30T13:27:24;22.30;79.20
56046;DHT22;41913;51.030;3.706;2023-08-30T13:29:50;22.30;79.90
56046;DHT22;41913;51.030;3.706;2023-08-30T13:32:15;22.30;79.70
56046;DHT22;41913;51.030;3.706;2023-08-30T13:34:41;22.30;80.50
56046;DHT22;41913;51.030;3.706;2023-08-30T13:37:11;22.40;81.20
56046;DHT22;41913;51.030;3.706;2023-08-30T13:39:39;22.40;80.80
56046;DHT22;41913;51.030;3.706;2023-08-30T13:42:05;22.40;79.80
56046;DHT22;41913;51.030;3.706;2023-08-30T13:44:31;22.40;79.70
56046;DHT22;41913;51.030;3.706;2023-08-30T13:46:57;22.40;79.90
56046;DHT22;41913;51.030;3.706;2023-08-30T13:49:23;22.40;80.30
56046;DHT22;41913;51.030;3.706;2023-08-30T13:51:49;22.40;80.40
56046;DHT22;41913;51.030;3.706;2023-08-30T13:54:15;22.40;80.60
56046;DHT22;41913;51.030;3.706;2023-08-30T13:56:40;22.40;81.00
56046;DHT22;41913;51.030;3.706;2023-08-30T13:59:07;22.40;81.40
56046;DHT22;41913;51.030;3.706;2023-08-30T14:01:33;22.40;81.60
56046;DHT22;41913;51.030;3.706;2023-08-30T14:04:00;22.40;81.60
56046;DHT22;41913;51.030;3.706;2023-08-30T14:06:26;22.40;80.30
56046;DHT22;41913;51.030;3.706;2023-08-30T14:08:52;22.50;80.50
56046;DHT22;41913;51.030;3.706;2023-08-30T14:11:18;22.50;80.60
56046;DHT22;41913;51.030;3.706;2023-08-30T14:13:43;22.50;80.60
56046;DHT22;41913;51.030;3.706;2023-08-30T14:16:09;22.50;81.00
56046;DHT22;41913;51.030;3.706;2023-08-30T14:18:36;22.50;81.10
56046;DHT22;41913;51.030;3.706;2023-08-30T14:21:02;22.50;80.30
56046;DHT22;41913;51.030;3.706;2023-08-30T14:23:28;22.40;79.60
56046;DHT22;41913;51.030;3.706;2023-08-30T14:26:04;22.40;79.40
56046;DHT22;41913;51.030;3.706;2023-08-30T14:28:38;22.40;79.60
56046;DHT22;41913;51.030;3.706;2023-08-30T14:31:09;22.50;79.60
56046;DHT22;41913;51.030;3.706;2023-08-30T14:33:35;22.50;79.90
56046;DHT22;41913;51.030;3.706;2023-08-30T14:36:01;22.50;80.20
56046;DHT22;41913;51.030;3.706;2023-08-30T14:38:28;22.50;80.70
56046;DHT22;41913;51.030;3.706;2023-08-30T14:40:59;22.50;80.60
56046;DHT22;41913;51.030;3.706;2023-08-30T14:43:25;22.50;80.30
56046;DHT22;41913;51.030;3.706;2023-08-30T14:45:58;22.50;80.80
56046;DHT22;41913;51.030;3.706;2023-08-30T14:48:24;22.50;80.70
56046;DHT22;41913;51.030;3.706;2023-08-30T14:50:51;22.50;80.20
56046;DHT22;41913;51.030;3.706;2023-08-30T14:53:19;22.50;80.20
56046;DHT22;41913;51.030;3.706;2023-08-30T14:55:45;22.50;80.50
56046;DHT22;41913;51.030;3.706;2023-08-30T14:58:12;22.50;80.30
56046;DHT22;41913;51.030;3.706;2023-08-30T15:00:38;22.50;80.60
56046;DHT22;41913;51.030;3.706;2023-08-30T15:03:04;22.50;80.80
56046;DHT22;41913;51.030;3.706;2023-08-30T15:05:30;22.50;80.70
56046;DHT22;41913;51.030;3.706;2023-08-30T15:07:55;22.60;80.60
56046;DHT22;41913;51.030;3.706;2023-08-30T15:10:21;22.50;80.80
56046;DHT22;41913;51.030;3.706;2023-08-30T15:12:47;22.50;81.30
56046;DHT22;41913;51.030;3.706;2023-08-30T15:15:14;22.60;81.60
56046;DHT22;41913;51.030;3.706;2023-08-30T15:17:40;22.50;81.70
56046;DHT22;41913;51.030;3.706;2023-08-30T15:20:07;22.60;81.80
56046;DHT22;41913;51.030;3.706;2023-08-30T15:22:34;22.50;81.60
56046;DHT22;41913;51.030;3.706;2023-08-30T15:25:00;22.50;80.70
56046;DHT22;41913;51.030;3.706;2023-08-30T15:27:29;22.50;79.90
56046;DHT22;41913;51.030;3.706;2023-08-30T15:29:55;22.50;79.60
56046;DHT22;41913;51.030;3.706;2023-08-30T15:32:24;22.50;79.50
56046;DHT22;41913;51.030;3.706;2023-08-30T15:34:50;22.50;79.20
56046;DHT22;41913;51.030;3.706;2023-08-30T15:37:16;22.50;79.00
56046;DHT22;41913;51.030;3.706;2023-08-30T15:39:42;22.50;78.80